Time;durP1;ratioP1;P1;durP2;ratioP2;P2;SDS_P1;SDS_P2;PMS_P1;PMS_P2;Temp;Humidity;BMP_temperature;BMP_pressure;BME280_temperature;BME280_humidity;BME280_pressure;Samples;Min_cycle;Max_cycle;Signal;HPM_P1;HPM_P2
2022/05/06 00:01:36;;;;;;;41.95;22.30;;;9.90;99.90;;;;;;4973732;28;20073;-82
2022/05/06 00:04:03;;;;;;;33.40;18.85;;;9.90;99.90;;;;;;4974265;28;20186;-81
2022/05/06 00:06:30;;;;;;;37.45;22.33;;;9.90;99.90;;;;;;4975160;28;20059;-81
2022/05/06 00:08:56;;;;;;;47.58;24.70;;;9.90;99.90;;;;;;4975850;28;20046;-81
2022/05/06 00:11:23;;;;;;;49.78;24.08;;;9.90;99.90;;;;;;4974538;28;20058;-81
2022/05/06 00:13:52;;;;;;;43.05;22.33;;;9.80;99.90;;;;;;4973101;28;20061;-80
2022/05/06 00:16:25;;;;;;;40.22;21.92;;;9.90;99.90;;;;;;4972497;28;20062;-81
2022/05/06 00:18:52;;;;;;;42.95;22.42;;;9.80;99.90;;;;;;4976849;28;20142;-81
2022/05/06 00:21:18;;;;;;;41.35;21.80;;;9.80;99.90;;;;;;4973206;28;20190;-80
2022/05/06 00:23:44;;;;;;;39.53;23.42;;;9.80;99.90;;;;;;4972017;28;20054;-82
2022/05/06 00:26:10;;;;;;;41.08;22.70;;;9.80;99.90;;;;;;4973010;28;20058;-82
2022/05/06 00:28:37;;;;;;;48.60;24.05;;;9.70;99.90;;;;;;4971607;28;20054;-82
2022/05/06 00:31:04;;;;;;;53.38;27.67;;;9.70;99.90;;;;;;4971413;28;20055;-82
2022/05/06 00:33:30;;;;;;;50.00;26.52;;;9.70;99.90;;;;;;4973173;28;20410;-82
2022/05/06 00:36:00;;;;;;;49.28;25.77;;;9.70;99.90;;;;;;4973292;28;20411;-82
2022/05/06 00:38:26;;;;;;;44.10;25.48;;;9.60;99.90;;;;;;4972561;28;20431;-82
2022/05/06 00:40:53;;;;;;;42.90;24.35;;;9.60;99.90;;;;;;4971655;28;20458;-82
2022/05/06 00:43:20;;;;;;;42.88;22.42;;;9.60;99.90;;;;;;4971566;28;20411;-82
2022/05/06 00:45:53;;;;;;;47.88;24.23;;;9.60;99.90;;;;;;4973148;28;20065;-82
2022/05/06 00:48:31;;;;;;;40.05;23.00;;;9.50;99.90;;;;;;4972220;28;20058;-82
2022/05/06 00:51:02;;;;;;;50.75;27.05;;;9.50;99.90;;;;;;4971742;28;20526;-82
2022/05/06 00:53:28;;;;;;;53.70;27.23;;;9.50;99.90;;;;;;4972468;28;20062;-81
2022/05/06 00:55:56;;;;;;;44.92;26.00;;;9.50;99.90;;;;;;4971245;28;20051;-82
2022/05/06 00:58:23;;;;;;;46.00;26.27;;;9.50;99.90;;;;;;4970829;28;20051;-82
2022/05/06 01:00:49;;;;;;;52.78;27.98;;;9.40;99.90;;;;;;4972865;28;20150;-82
2022/05/06 01:03:15;;;;;;;50.85;27.40;;;9.40;99.90;;;;;;4971200;28;20197;-82
2022/05/06 01:05:41;;;;;;;63.78;34.78;;;9.40;99.90;;;;;;4972636;28;20039;-82
2022/05/06 01:08:09;;;;;;;56.47;32.17;;;9.40;99.90;;;;;;4971241;28;20129;-82
2022/05/06 01:10:37;;;;;;;50.53;27.90;;;9.30;99.90;;;;;;4975550;28;20058;-82
2022/05/06 01:13:03;;;;;;;49.85;27.88;;;9.30;99.90;;;;;;4972715;28;20069;-82
2022/05/06 01:15:30;;;;;;;57.55;34.15;;;9.30;99.90;;;;;;4973973;28;20140;-82
2022/05/06 01:17:58;;;;;;;53.22;29.17;;;9.30;99.90;;;;;;4974532;28;20057;-83
2022/05/06 01:20:25;;;;;;;57.13;31.65;;;9.30;99.90;;;;;;4972219;28;20047;-83
2022/05/06 01:22:58;;;;;;;62.25;34.63;;;9.30;99.90;;;;;;4972455;28;20422;-82
2022/05/06 01:25:24;;;;;;;70.95;39.03;;;9.20;99.90;;;;;;4972300;28;20114;-82
2022/05/06 01:28:01;;;;;;;55.17;34.20;;;9.20;99.90;;;;;;4972399;28;20054;-82
2022/05/06 01:30:32;;;;;;;67.85;41.10;;;9.20;99.90;;;;;;4970640;28;20046;-81
2022/05/06 01:33:09;;;;;;;71.15;41.38;;;9.20;99.90;;;;;;4971049;28;20058;-80
2022/05/06 01:35:51;;;;;;;69.03;39.70;;;9.20;99.90;;;;;;4972276;28;20141;-80
2022/05/06 01:38:21;;;;;;;65.07;39.55;;;9.20;99.90;;;;;;4970799;28;20047;-81
2022/05/06 01:40:55;;;;;;;65.65;39.15;;;9.20;99.90;;;;;;4972258;28;20055;-81
2022/05/06 01:43:24;;;;;;;68.72;40.88;;;9.20;99.90;;;;;;4975002;28;20483;-82
2022/05/06 01:45:52;;;;;;;84.82;49.38;;;9.20;99.90;;;;;;4972568;28;20069;-81
2022/05/06 01:48:20;;;;;;;66.40;40.35;;;9.20;99.90;;;;;;4972627;28;20057;-82
2022/05/06 01:50:48;;;;;;;65.13;40.55;;;9.20;99.90;;;;;;4971647;28;20050;-81
2022/05/06 01:53:16;;;;;;;80.88;46.65;;;9.20;99.90;;;;;;4970568;28;20065;-82
2022/05/06 01:55:46;;;;;;;88.70;51.42;;;9.20;99.90;;;;;;4972635;28;20050;-81
2022/05/06 01:58:13;;;;;;;91.78;51.17;;;9.20;99.90;;;;;;4972745;28;20051;-81
2022/05/06 02:00:39;;;;;;;74.20;43.50;;;9.20;99.90;;;;;;4970850;28;20055;-82
2022/05/06 02:03:05;;;;;;;73.03;42.50;;;9.20;99.90;;;;;;4972504;28;20058;-80
2022/05/06 02:05:31;;;;;;;78.88;43.63;;;9.20;99.90;;;;;;4954554;28;20074;-80
2022/05/06 02:07:57;;;;;;;79.13;46.03;;;9.30;99.90;;;;;;4971973;28;20050;-80
2022/05/06 02:10:27;;;;;;;77.82;44.38;;;9.30;99.90;;;;;;4970325;28;20054;-81
2022/05/06 02:12:53;;;;;;;71.43;43.42;;;9.30;99.90;;;;;;4976848;28;20051;-81
2022/05/06 02:15:19;;;;;;;91.47;50.45;;;9.40;99.90;;;;;;4975586;28;20101;-82
2022/05/06 02:17:45;;;;;;;83.75;48.85;;;9.50;99.90;;;;;;4975642;28;20058;-81
2022/05/06 02:20:13;;;;;;;87.80;50.25;;;9.50;99.90;;;;;;4975325;28;20050;-81
2022/05/06 02:22:45;;;;;;;80.10;46.58;;;9.60;99.90;;;;;;4958199;28;20525;-81
2022/05/06 02:25:11;;;;;;;108.70;58.47;;;9.70;99.90;;;;;;4974066;28;20517;-81
2022/05/06 02:27:38;;;;;;;94.70;52.10;;;9.80;99.90;;;;;;4974394;28;20134;-81
2022/05/06 02:35:33;;;;;;;155.23;68.17;;;10.00;99.90;;;;;;4975650;28;20133;-82
2022/05/06 02:38:00;;;;;;;133.07;60.17;;;10.10;99.90;;;;;;4975445;28;20236;-82
2022/05/06 02:40:26;;;;;;;152.23;64.32;;;10.20;99.90;;;;;;4973753;28;20404;-81
2022/05/06 02:42:51;;;;;;;234.00;66.18;;;10.20;99.90;;;;;;4975183;28;20062;-81
2022/05/06 02:45:17;;;;;;;154.00;57.60;;;10.30;99.90;;;;;;4975579;28;20060;-81
2022/05/06 02:47:43;;;;;;;214.30;57.20;;;10.30;99.90;;;;;;4974202;28;20082;-82
2022/05/06 02:50:09;;;;;;;550.50;83.50;;;10.30;99.90;;;;;;4973720;28;20121;-81
2022/05/06 02:52:35;;;;;;;272.15;62.25;;;10.30;99.90;;;;;;4974734;28;20065;-82
2022/05/06 02:55:01;;;;;;;469.23;80.10;;;10.30;99.90;;;;;;4973562;28;20054;-81
2022/05/06 02:57:27;;;;;;;273.40;61.83;;;10.30;99.90;;;;;;4974505;28;20498;-81
2022/05/06 02:59:53;;;;;;;625.03;83.97;;;10.30;99.90;;;;;;4958495;28;20054;-81
2022/05/06 03:02:18;;;;;;;440.42;73.80;;;10.40;99.90;;;;;;4979963;28;20051;-81
2022/05/06 03:04:44;;;;;;;612.13;82.13;;;10.30;99.90;;;;;;4979330;28;20062;-82
2022/05/06 03:07:10;;;;;;;616.83;84.65;;;10.30;99.90;;;;;;4977693;28;20054;-81
2022/05/06 03:09:39;;;;;;;375.38;71.75;;;10.20;99.90;;;;;;4973317;28;20574;-81
2022/05/06 03:12:06;;;;;;;277.73;54.85;;;10.20;99.90;;;;;;4973289;28;20086;-81
2022/05/06 03:14:32;;;;;;;557.60;72.43;;;10.20;99.90;;;;;;4972955;28;20059;-82
2022/05/06 03:16:58;;;;;;;287.63;60.17;;;10.30;99.90;;;;;;4972735;28;20039;-81
2022/05/06 03:19:24;;;;;;;404.17;67.38;;;10.30;99.90;;;;;;4973820;28;20129;-81
2022/05/06 03:21:52;;;;;;;275.02;55.63;;;10.30;99.90;;;;;;4958386;28;20194;-81
2022/05/06 03:24:18;;;;;;;410.58;65.15;;;10.30;99.90;;;;;;4973926;28;20258;-81
2022/05/06 03:26:45;;;;;;;510.27;75.10;;;10.30;99.90;;;;;;4974221;28;20047;-81
2022/05/06 03:29:11;;;;;;;230.75;53.63;;;10.40;99.90;;;;;;4973981;28;20043;-82
2022/05/06 03:31:37;;;;;;;166.27;49.15;;;10.40;99.90;;;;;;4973789;28;20137;-82
2022/05/06 03:34:03;;;;;;;197.90;48.45;;;10.40;99.90;;;;;;4976208;28;20079;-83
2022/05/06 03:36:29;;;;;;;166.32;46.92;;;10.40;99.90;;;;;;4976570;28;20058;-82
2022/05/06 03:38:55;;;;;;;319.10;60.78;;;10.40;99.90;;;;;;4979749;28;20509;-81
2022/05/06 03:41:21;;;;;;;325.63;57.63;;;10.40;99.90;;;;;;4973491;28;20050;-81
2022/05/06 03:43:47;;;;;;;168.77;46.20;;;10.40;99.90;;;;;;4972429;28;20055;-81
2022/05/06 03:46:13;;;;;;;297.75;55.25;;;10.40;99.90;;;;;;4956102;28;20130;-82
2022/05/06 03:48:39;;;;;;;389.25;62.20;;;10.40;99.90;;;;;;4972330;28;20090;-81
2022/05/06 03:51:21;;;;;;;401.27;59.80;;;10.40;99.90;;;;;;4972455;28;20086;-81
2022/05/06 03:53:48;;;;;;;137.63;44.85;;;10.40;99.90;;;;;;4973393;28;20538;-82
2022/05/06 03:56:14;;;;;;;209.82;49.88;;;10.40;99.90;;;;;;4973453;28;20377;-81
2022/05/06 03:58:40;;;;;;;250.15;52.85;;;10.50;99.90;;;;;;4977258;28;20141;-81
2022/05/06 04:01:09;;;;;;;326.40;58.58;;;10.50;99.90;;;;;;4971825;28;20039;-81
2022/05/06 04:03:36;;;;;;;323.42;56.53;;;10.50;99.90;;;;;;4973557;28;20121;-81
2022/05/06 04:06:02;;;;;;;333.75;58.50;;;10.50;99.90;;;;;;4973194;28;20138;-81
2022/05/06 04:08:28;;;;;;;444.15;63.13;;;10.40;99.90;;;;;;4973368;28;20411;-82
2022/05/06 04:10:54;;;;;;;303.17;52.78;;;10.40;99.90;;;;;;4973592;28;20047;-81
2022/05/06 04:13:20;;;;;;;475.10;65.75;;;10.40;99.90;;;;;;4975047;28;20069;-81
2022/05/06 04:15:46;;;;;;;465.95;66.75;;;10.40;99.90;;;;;;4975046;28;20042;-81
2022/05/06 04:18:13;;;;;;;361.92;58.58;;;10.40;99.90;;;;;;4975127;28;20483;-81
2022/05/06 04:23:43;;;;;;;293.58;54.58;;;10.40;99.90;;;;;;4954449;28;20066;-82
2022/05/06 04:26:11;;;;;;;115.00;40.60;;;10.50;99.90;;;;;;4955035;28;20054;-82
2022/05/06 04:28:38;;;;;;;262.20;51.22;;;10.40;99.90;;;;;;4961085;28;20055;-82
2022/05/06 04:31:04;;;;;;;321.50;51.85;;;10.50;99.90;;;;;;4973677;28;20141;-81
2022/05/06 04:33:30;;;;;;;407.35;58.05;;;10.40;99.90;;;;;;4974308;28;20053;-81
2022/05/06 04:35:58;;;;;;;149.70;42.60;;;10.40;99.90;;;;;;4971499;28;20038;-80
2022/05/06 04:38:24;;;;;;;230.40;45.08;;;10.50;99.90;;;;;;4972273;28;20099;-82
2022/05/06 04:40:51;;;;;;;212.60;44.88;;;10.50;99.90;;;;;;4973011;28;20057;-82
2022/05/06 04:43:18;;;;;;;236.27;46.42;;;10.40;99.90;;;;;;4972086;28;20050;-81
2022/05/06 04:45:44;;;;;;;342.73;54.15;;;10.40;99.90;;;;;;4973595;28;20077;-82
2022/05/06 04:48:12;;;;;;;154.27;40.88;;;10.40;99.90;;;;;;4973557;28;20046;-81
2022/05/06 04:50:39;;;;;;;252.40;47.20;;;10.40;99.90;;;;;;4959444;28;20536;-82
2022/05/06 04:53:09;;;;;;;130.65;39.63;;;10.40;99.90;;;;;;4975681;28;20054;-81
2022/05/06 04:55:42;;;;;;;153.13;38.67;;;10.40;99.90;;;;;;4973481;28;20058;-82
2022/05/06 04:58:09;;;;;;;245.40;46.28;;;10.40;99.90;;;;;;4973494;28;20066;-81
2022/05/06 05:00:35;;;;;;;214.75;45.05;;;10.50;99.90;;;;;;4972886;28;20055;-82
2022/05/06 05:03:01;;;;;;;169.30;40.72;;;10.40;99.90;;;;;;4972166;28;20431;-81
2022/05/06 05:05:27;;;;;;;173.20;38.85;;;10.40;99.90;;;;;;4973934;28;20069;-82
2022/05/06 05:07:54;;;;;;;205.07;38.75;;;10.50;99.90;;;;;;4973324;28;20061;-81
2022/05/06 05:10:21;;;;;;;173.82;36.20;;;10.50;99.90;;;;;;4971368;28;20097;-81
2022/05/06 05:12:47;;;;;;;122.13;32.25;;;10.50;99.90;;;;;;4972546;28;20058;-82
2022/05/06 05:15:13;;;;;;;99.72;30.42;;;10.40;99.90;;;;;;4971157;28;20133;-82
2022/05/06 05:17:39;;;;;;;132.95;27.75;;;10.40;99.90;;;;;;4972152;28;20164;-81
2022/05/06 05:20:06;;;;;;;88.25;22.17;;;10.40;99.90;;;;;;4971524;28;20062;-81
2022/05/06 05:22:33;;;;;;;91.75;20.77;;;10.40;99.90;;;;;;4955110;28;20046;-81
2022/05/06 05:24:59;;;;;;;98.13;21.48;;;10.40;99.90;;;;;;4973767;28;20102;-81
2022/05/06 05:27:25;;;;;;;62.78;17.58;;;10.30;99.90;;;;;;4972843;28;20145;-81
2022/05/06 05:29:50;;;;;;;58.03;17.85;;;10.20;99.90;;;;;;4976422;28;20130;-80
2022/05/06 05:32:17;;;;;;;68.65;18.83;;;10.20;99.90;;;;;;4954837;28;20090;-81
2022/05/06 05:34:43;;;;;;;72.65;17.75;;;10.20;99.90;;;;;;4954958;28;20053;-82
2022/05/06 05:37:11;;;;;;;55.17;16.40;;;10.20;99.90;;;;;;4972737;28;20051;-81
2022/05/06 05:39:36;;;;;;;109.10;19.38;;;10.10;99.90;;;;;;4972748;28;20422;-81
2022/05/06 05:42:03;;;;;;;180.57;22.08;;;10.20;99.90;;;;;;4972096;28;20062;-81
2022/05/06 05:49:59;;;;;;;;;;;10.10;99.90;;;;;;4976670;28;20162;-81
2022/05/06 05:52:25;;;;;;;59.63;13.98;;;10.20;99.90;;;;;;4976487;28;20024;-82
2022/05/06 05:54:51;;;;;;;72.68;14.38;;;10.20;99.90;;;;;;4976799;28;20054;-82
2022/05/06 05:57:17;;;;;;;93.22;15.05;;;10.30;99.90;;;;;;4979047;28;20054;-82
2022/05/06 05:59:43;;;;;;;61.28;15.27;;;10.30;99.90;;;;;;4961415;28;20061;-82
2022/05/06 06:02:11;;;;;;;83.43;14.60;;;10.50;99.90;;;;;;4976074;28;20117;-83
2022/05/06 06:04:38;;;;;;;31.35;11.63;;;10.50;99.90;;;;;;4974189;28;20526;-83
2022/05/06 06:07:04;;;;;;;36.65;13.52;;;10.60;99.90;;;;;;4974521;28;20178;-82
2022/05/06 06:09:32;;;;;;;33.25;13.32;;;10.60;99.90;;;;;;4975261;28;20097;-82
2022/05/06 06:11:58;;;;;;;26.05;12.52;;;10.80;99.90;;;;;;4976723;28;20105;-82
2022/05/06 06:14:24;;;;;;;30.48;13.48;;;10.80;99.90;;;;;;4976014;28;20143;-82
2022/05/06 06:16:50;;;;;;;33.05;13.60;;;10.80;99.90;;;;;;4975432;28;20094;-81
2022/05/06 06:19:16;;;;;;;18.77;11.50;;;10.80;99.90;;;;;;4974020;28;20066;-82
2022/05/06 06:21:43;;;;;;;19.40;10.88;;;10.80;99.90;;;;;;4975847;28;20055;-82
2022/05/06 06:24:09;;;;;;;23.20;13.32;;;10.80;99.90;;;;;;4973836;28;20054;-81
2022/05/06 06:26:35;;;;;;;23.60;13.30;;;10.90;99.90;;;;;;4978437;28;20058;-82
2022/05/06 06:29:02;;;;;;;22.27;14.45;;;10.90;99.90;;;;;;4974168;28;20058;-81
2022/05/06 06:31:31;;;;;;;22.23;12.90;;;10.90;99.90;;;;;;4974864;28;20066;-82
2022/05/06 06:33:58;;;;;;;27.70;14.98;;;11.00;99.90;;;;;;4975256;28;20212;-82
2022/05/06 06:36:24;;;;;;;20.63;13.40;;;11.00;99.90;;;;;;4975952;28;20538;-82
2022/05/06 06:38:50;;;;;;;25.30;13.75;;;11.00;99.90;;;;;;4975031;28;20549;-82
2022/05/06 06:41:16;;;;;;;23.40;12.18;;;11.00;99.90;;;;;;4981334;28;20047;-83
2022/05/06 06:43:42;;;;;;;21.88;13.90;;;11.10;99.90;;;;;;4983583;28;20082;-84
2022/05/06 06:46:09;;;;;;;21.20;12.10;;;11.10;99.90;;;;;;4961754;28;20051;-84
2022/05/06 06:48:35;;;;;;;22.08;12.48;;;11.10;99.90;;;;;;4975386;28;20065;-81
2022/05/06 06:51:01;;;;;;;23.42;13.57;;;11.10;99.90;;;;;;4975572;28;20138;-83
2022/05/06 06:53:27;;;;;;;24.42;13.23;;;11.20;99.90;;;;;;4976038;28;20130;-83
2022/05/06 06:55:53;;;;;;;21.98;12.40;;;11.20;99.90;;;;;;4975394;28;20502;-83
2022/05/06 06:58:19;;;;;;;22.38;12.63;;;11.20;99.90;;;;;;4973799;28;20109;-83
2022/05/06 07:00:45;;;;;;;21.77;12.63;;;11.30;99.90;;;;;;4989640;28;20054;-83
2022/05/06 07:03:14;;;;;;;20.90;11.90;;;11.30;99.90;;;;;;4974315;28;20514;-83
2022/05/06 07:11:52;;;;;;;18.45;12.07;;;11.40;99.90;;;;;;4973136;28;20055;-82
2022/05/06 07:13:55;;;;;;;19.70;12.05;;;11.50;99.90;;;;;;4972892;28;20529;-83
2022/05/06 07:16:22;;;;;;;21.85;13.38;;;11.60;99.90;;;;;;4972881;28;20051;-82
2022/05/06 07:18:49;;;;;;;24.05;12.68;;;11.70;99.90;;;;;;4974409;28;20083;-82
2022/05/06 07:21:15;;;;;;;20.13;13.43;;;11.80;99.90;;;;;;4974018;28;20061;-82
2022/05/06 07:23:41;;;;;;;21.35;13.48;;;12.00;99.90;;;;;;4973992;28;20042;-82
2022/05/06 07:26:07;;;;;;;22.52;14.38;;;12.10;99.90;;;;;;4973388;28;20058;-82
2022/05/06 07:28:33;;;;;;;20.48;12.43;;;12.10;99.90;;;;;;4976186;28;20046;-81
2022/05/06 07:30:58;;;;;;;21.05;13.35;;;12.20;99.90;;;;;;4958446;28;20110;-82
2022/05/06 07:33:24;;;;;;;20.33;13.23;;;12.20;99.90;;;;;;4978313;28;20146;-83
2022/05/06 07:35:50;;;;;;;22.80;14.73;;;12.40;99.90;;;;;;4977278;28;20061;-82
2022/05/06 07:38:16;;;;;;;22.48;13.60;;;12.50;99.90;;;;;;4974066;28;20594;-82
2022/05/06 07:40:43;;;;;;;19.23;12.50;;;12.60;99.90;;;;;;4974462;28;20062;-82
2022/05/06 07:43:09;;;;;;;21.83;13.75;;;12.70;99.90;;;;;;4973290;28;20065;-82
2022/05/06 07:45:35;;;;;;;17.95;12.18;;;12.70;99.90;;;;;;4973816;28;20059;-82
2022/05/06 07:48:03;;;;;;;21.85;13.57;;;12.80;99.90;;;;;;4972825;28;20047;-82
2022/05/06 07:50:30;;;;;;;24.02;14.13;;;13.00;99.90;;;;;;4972828;28;20077;-82
2022/05/06 07:52:56;;;;;;;23.13;13.45;;;13.10;99.90;;;;;;4956509;28;20047;-82
2022/05/06 07:55:22;;;;;;;20.95;14.20;;;13.20;99.90;;;;;;4974351;28;20397;-83
2022/05/06 07:57:48;;;;;;;21.35;13.57;;;13.30;99.90;;;;;;4976206;28;20050;-83
2022/05/06 08:00:15;;;;;;;25.77;13.80;;;13.30;99.90;;;;;;4972422;28;20050;-84
2022/05/06 08:05:28;;;;;;;18.70;11.52;;;13.80;99.90;;;;;;4974009;28;20069;-84
2022/05/06 08:07:57;;;;;;;18.88;11.38;;;13.90;99.90;;;;;;4972144;28;20100;-83
2022/05/06 08:10:23;;;;;;;16.65;11.52;;;14.10;99.90;;;;;;4973410;28;20126;-83
2022/05/06 08:12:48;;;;;;;17.17;9.95;;;14.10;99.90;;;;;;4973807;28;20284;-83
2022/05/06 08:15:14;;;;;;;16.45;10.63;;;14.20;99.90;;;;;;4973642;28;20042;-83
2022/05/06 08:17:40;;;;;;;14.18;9.48;;;14.20;99.90;;;;;;4975050;28;20050;-83
2022/05/06 08:20:08;;;;;;;14.73;8.93;;;14.20;99.90;;;;;;4974266;28;20058;-83
2022/05/06 08:22:38;;;;;;;13.85;9.48;;;14.30;99.90;;;;;;4972845;28;20054;-84
2022/05/06 08:25:05;;;;;;;15.57;9.98;;;14.50;99.90;;;;;;4972610;28;20046;-84
2022/05/06 08:27:38;;;;;;;11.10;7.82;;;14.60;99.90;;;;;;4973158;28;20130;-84
2022/05/06 08:30:09;;;;;;;12.80;8.77;;;14.80;99.90;;;;;;4973250;28;20105;-83
2022/05/06 08:32:37;;;;;;;12.60;9.00;;;15.00;99.90;;;;;;4972651;28;20086;-85
2022/05/06 08:35:03;;;;;;;12.70;8.43;;;15.30;99.90;;;;;;4974478;28;20047;-84
2022/05/06 08:37:38;;;;;;;11.43;8.05;;;15.70;99.90;;;;;;4974584;28;20081;-84
2022/05/06 08:40:05;;;;;;;13.10;7.40;;;16.00;99.90;;;;;;4975182;28;20090;-84
2022/05/06 08:42:31;;;;;;;9.63;7.53;;;16.30;99.90;;;;;;4974944;28;20059;-84
2022/05/06 08:53:11;;;;;;;11.00;7.63;;;16.80;99.90;;;;;;4978151;28;20062;-85
2022/05/06 08:55:37;;;;;;;10.18;7.03;;;16.90;99.90;;;;;;4976941;28;20057;-85
2022/05/06 08:58:06;;;;;;;9.40;6.93;;;17.10;99.90;;;;;;4971850;28;20398;-84
2022/05/06 09:00:32;;;;;;;10.73;6.57;;;17.10;99.90;;;;;;4971688;28;20089;-86
2022/05/06 09:02:58;;;;;;;9.70;6.25;;;17.00;99.90;;;;;;4971438;28;20090;-83
2022/05/06 09:05:24;;;;;;;10.98;6.20;;;17.30;99.90;;;;;;4972589;28;20074;-84
2022/05/06 09:08:02;;;;;;;14.18;6.40;;;17.60;99.90;;;;;;4972772;28;20055;-85
2022/05/06 09:10:29;;;;;;;9.98;6.70;;;17.80;99.90;;;;;;4972194;28;20058;-83
2022/05/06 09:12:59;;;;;;;7.90;6.30;;;17.80;99.90;;;;;;4956510;28;20054;-86
2022/05/06 09:18:22;;;;;;;7.57;5.55;;;18.10;99.90;;;;;;4972392;28;20061;-84
2022/05/06 09:20:50;;;;;;;8.73;5.95;;;18.50;99.90;;;;;;4974382;28;20503;-84
2022/05/06 09:23:24;;;;;;;7.38;5.95;;;18.80;99.90;;;;;;4974297;28;20086;-85
2022/05/06 09:25:52;;;;;;;14.00;5.25;;;18.80;99.90;;;;;;4971640;28;20137;-84
2022/05/06 09:28:28;;;;;;;8.80;5.10;;;18.70;99.90;;;;;;4972406;28;20047;-85
2022/05/06 09:31:04;;;;;;;5.63;4.38;;;18.60;99.90;;;;;;4955363;28;20051;-84
2022/05/06 09:33:32;;;;;;;6.60;4.57;;;18.70;99.90;;;;;;4971433;28;20455;-85
2022/05/06 09:36:23;;;;;;;7.70;4.82;;;18.80;99.90;;;;;;4973123;28;20050;-87
2022/05/06 09:39:10;;;;;;;8.15;4.22;;;18.70;99.90;;;;;;4979665;28;20051;-84
2022/05/06 09:41:40;;;;;;;5.68;4.18;;;18.80;99.90;;;;;;4985057;28;20054;-85
2022/05/06 09:44:08;;;;;;;6.55;4.32;;;19.00;99.90;;;;;;4976162;28;20051;-84
2022/05/06 09:46:35;;;;;;;5.32;4.13;;;19.00;99.90;;;;;;4971907;28;20051;-84
2022/05/06 09:49:02;;;;;;;6.90;4.03;;;19.30;99.90;;;;;;4956193;28;20046;-87
2022/05/06 09:51:33;;;;;;;5.82;4.00;;;19.00;99.90;;;;;;4971689;28;20049;-84
2022/05/06 09:54:00;;;;;;;8.43;4.00;;;18.90;99.90;;;;;;4973191;28;20055;-85
2022/05/06 09:56:27;;;;;;;6.30;3.50;;;18.90;99.90;;;;;;4974601;28;20105;-84
2022/05/06 09:58:54;;;;;;;5.60;3.65;;;19.00;99.90;;;;;;4974736;28;20069;-83
2022/05/06 10:01:21;;;;;;;5.80;3.88;;;19.00;99.90;;;;;;4975656;28;20055;-84
2022/05/06 10:03:47;;;;;;;5.75;3.30;;;19.00;99.60;;;;;;4974358;28;20047;-86
2022/05/06 10:06:14;;;;;;;4.97;2.72;;;19.30;99.90;;;;;;4977041;28;20046;-87
2022/05/06 10:08:52;;;;;;;4.88;2.50;;;19.30;99.90;;;;;;4978207;28;20089;-87
2022/05/06 10:11:40;;;;;;;7.18;3.13;;;19.60;99.90;;;;;;4977745;28;20526;-84
2022/05/06 10:14:07;;;;;;;4.47;2.88;;;19.50;99.90;;;;;;4972839;28;20434;-84
2022/05/06 10:16:36;;;;;;;6.60;2.38;;;19.70;99.90;;;;;;4972888;28;20082;-87
2022/05/06 10:19:03;;;;;;;4.85;2.28;;;19.80;99.90;;;;;;4971720;28;20051;-84
2022/05/06 10:21:47;;;;;;;5.05;2.75;;;19.90;99.60;;;;;;4972393;28;20055;-85
2022/05/06 10:24:14;;;;;;;4.55;1.85;;;19.90;98.60;;;;;;4973826;28;20073;-86
2022/05/06 10:26:48;;;;;;;4.32;2.10;;;20.20;98.90;;;;;;4972528;28;20062;-85
2022/05/06 10:34:57;;;;;;;4.13;1.67;;;20.20;97.90;;;;;;4976931;28;20077;-84
2022/05/06 10:37:26;;;;;;;4.53;2.00;;;20.70;97.70;;;;;;4974362;28;20407;-84
2022/05/06 10:39:52;;;;;;;4.15;2.17;;;21.00;96.40;;;;;;4974716;28;20557;-86
2022/05/06 10:42:30;;;;;;;5.78;2.20;;;21.10;96.00;;;;;;4976497;28;20463;-86
2022/05/06 10:44:56;;;;;;;3.38;1.67;;;20.90;95.90;;;;;;4976119;28;20047;-88
2022/05/06 10:47:25;;;;;;;3.35;1.80;;;20.90;95.50;;;;;;4978295;28;20061;-85
2022/05/06 10:49:52;;;;;;;4.65;1.73;;;21.20;95.50;;;;;;4981519;28;20047;-87
2022/05/06 10:52:18;;;;;;;3.90;1.60;;;21.30;95.00;;;;;;4977218;28;20078;-85
2022/05/06 10:54:47;;;;;;;7.82;1.92;;;21.30;94.30;;;;;;4976280;28;20055;-87
2022/05/06 10:57:14;;;;;;;3.78;1.40;;;21.30;93.80;;;;;;4975125;28;20058;-87
2022/05/06 10:59:50;;;;;;;3.75;2.05;;;21.60;93.60;;;;;;4975337;28;20061;-87
2022/05/06 11:02:16;;;;;;;5.88;2.42;;;21.40;92.60;;;;;;4975037;28;20118;-88
2022/05/06 11:04:52;;;;;;;4.47;1.95;;;21.10;93.20;;;;;;4974734;28;20506;-88
2022/05/06 11:07:18;;;;;;;5.80;2.33;;;21.20;92.60;;;;;;4975982;28;20070;-87
2022/05/06 11:09:44;;;;;;;5.38;2.50;;;21.00;93.50;;;;;;4976677;28;20108;-88
2022/05/06 11:12:10;;;;;;;5.07;2.97;;;21.00;93.40;;;;;;4977121;28;20074;-87
2022/05/06 11:14:36;;;;;;;4.18;2.88;;;21.20;94.20;;;;;;4975006;28;20057;-88
2022/05/06 11:17:15;;;;;;;5.53;3.42;;;21.30;93.80;;;;;;4975633;28;20051;-87
2022/05/06 11:19:41;;;;;;;6.05;2.58;;;21.50;92.40;;;;;;4976601;28;20057;-85
2022/05/06 11:22:11;;;;;;;4.43;2.60;;;22.00;92.40;;;;;;4977389;28;20403;-85
2022/05/06 11:24:37;;;;;;;4.25;2.67;;;21.70;92.60;;;;;;4974941;28;20043;-85
2022/05/06 11:27:16;;;;;;;6.38;3.67;;;21.40;92.70;;;;;;4974779;28;20063;-84
2022/05/06 11:30:16;;;;;;;8.88;4.43;;;21.60;92.30;;;;;;4973973;28;20047;-85
2022/05/06 11:32:50;;;;;;;7.90;4.53;;;22.20;92.20;;;;;;4974621;28;20407;-87
2022/05/06 11:35:28;;;;;;;6.95;4.05;;;22.80;91.90;;;;;;4974938;28;20055;-87
2022/05/06 11:37:55;;;;;;;17.50;3.60;;;22.50;90.90;;;;;;4974867;28;20086;-84
2022/05/06 11:40:32;;;;;;;9.32;3.65;;;22.90;91.50;;;;;;4973634;28;20061;-87
2022/05/06 11:42:59;;;;;;;8.52;4.43;;;23.00;91.20;;;;;;4974697;28;20499;-85
2022/05/06 11:48:12;;;;;;;5.90;3.85;;;23.60;89.30;;;;;;4974881;28;20057;-86
2022/05/06 11:50:39;;;;;;;7.28;3.20;;;23.80;87.20;;;;;;4974448;28;20051;-84
2022/05/06 11:53:10;;;;;;;6.55;3.00;;;24.10;84.60;;;;;;4972879;28;20097;-86
2022/05/06 11:55:43;;;;;;;8.63;3.83;;;24.30;84.10;;;;;;4973034;28;20137;-87
2022/05/06 11:58:17;;;;;;;7.20;2.90;;;24.20;79.30;;;;;;4972629;28;20121;-86
2022/05/06 12:00:44;;;;;;;12.52;5.65;;;24.20;86.70;;;;;;4974034;28;20407;-84
2022/05/06 12:03:12;;;;;;;7.60;4.85;;;24.30;77.90;;;;;;4956303;28;20074;-86
2022/05/06 12:05:40;;;;;;;6.63;4.32;;;24.30;79.50;;;;;;4972993;28;20050;-84
2022/05/06 12:08:07;;;;;;;7.07;4.20;;;24.70;81.00;;;;;;4978352;28;20222;-88
2022/05/06 12:10:35;;;;;;;10.38;4.80;;;24.80;81.30;;;;;;4972869;28;20205;-86
2022/05/06 12:13:10;;;;;;;7.85;4.47;;;25.40;75.30;;;;;;4973989;28;20059;-84
2022/05/06 12:15:37;;;;;;;6.97;3.72;;;25.40;69.50;;;;;;4973862;28;20050;-85
2022/05/06 12:18:18;;;;;;;6.65;3.17;;;25.30;72.20;;;;;;4972782;28;20051;-86
2022/05/06 12:20:46;;;;;;;5.72;3.63;;;25.70;71.70;;;;;;4976288;28;20047;-85
2022/05/06 12:23:13;;;;;;;7.57;4.07;;;25.40;69.10;;;;;;4976790;28;20050;-84
2022/05/06 12:25:41;;;;;;;7.95;4.00;;;25.00;66.60;;;;;;4973569;28;20141;-85
2022/05/06 12:28:08;;;;;;;6.18;3.80;;;24.70;67.90;;;;;;4973768;28;20056;-85
2022/05/06 12:30:36;;;;;;;7.00;4.88;;;24.50;70.40;;;;;;4955759;28;20513;-84
2022/05/06 12:33:04;;;;;;;7.40;4.45;;;24.40;69.80;;;;;;4971591;28;20407;-84
2022/05/06 12:35:30;;;;;;;5.13;3.30;;;24.20;71.90;;;;;;4971425;28;20569;-84
2022/05/06 12:37:58;;;;;;;9.38;4.78;;;24.80;75.20;;;;;;4971898;28;20145;-85
2022/05/06 12:40:31;;;;;;;8.15;4.07;;;25.00;71.80;;;;;;4973625;28;20073;-84
2022/05/06 12:43:09;;;;;;;5.90;4.45;;;25.00;70.10;;;;;;4972072;28;20090;-84
2022/05/06 12:45:35;;;;;;;7.65;4.93;;;25.20;68.80;;;;;;4973335;28;20050;-85
2022/05/06 12:50:45;;;;;;;8.55;4.20;;;24.50;68.80;;;;;;4972032;28;20435;-88
2022/05/06 12:53:11;;;;;;;8.85;4.57;;;24.50;70.40;;;;;;4973137;28;20061;-84
2022/05/06 12:55:38;;;;;;;9.48;4.78;;;24.80;70.70;;;;;;4972552;28;20051;-85
2022/05/06 12:58:04;;;;;;;7.78;4.22;;;23.90;70.70;;;;;;4973647;28;20043;-83
2022/05/06 13:00:30;;;;;;;8.05;4.80;;;23.80;73.40;;;;;;4973234;28;20054;-84
2022/05/06 13:02:58;;;;;;;7.72;5.22;;;24.10;75.40;;;;;;4971424;28;20053;-85
2022/05/06 13:05:24;;;;;;;7.82;5.55;;;24.00;74.80;;;;;;4973002;28;20054;-86
2022/05/06 13:07:50;;;;;;;11.98;7.18;;;23.90;75.40;;;;;;4972322;28;20125;-85
2022/05/06 13:10:16;;;;;;;19.55;8.30;;;23.90;76.40;;;;;;4973996;28;20106;-85
2022/05/06 13:12:45;;;;;;;13.02;8.23;;;23.60;77.30;;;;;;4977068;28;20494;-85
2022/05/06 13:15:13;;;;;;;10.75;7.75;;;23.30;80.00;;;;;;4973415;28;20051;-84
2022/05/06 13:17:40;;;;;;;11.48;8.45;;;22.70;85.20;;;;;;4956562;28;20058;-87
2022/05/06 13:20:06;;;;;;;13.48;9.40;;;22.20;90.50;;;;;;4971969;28;20058;-84
2022/05/06 13:22:32;;;;;;;13.25;9.50;;;21.90;92.30;;;;;;4939635;28;20090;-86